Time;durP1;ratioP1;P1;durP2;ratioP2;P2;SDS_P1;SDS_P2;PMS_P1;PMS_P2;Temp;Humidity;BMP_temperature;BMP_pressure;BME280_temperature;BME280_humidity;BME280_pressure;Samples;Min_cycle;Max_cycle;Signal;HPM_P1;HPM_P2
2022/04/21 03:46:45;;;;;;;25.25;13.48;;;;;;;2.67;96.16;100114.38;6562324;26;20126;-88
2022/04/21 03:49:57;;;;;;;21.35;12.00;;;;;;;2.56;96.30;100125.09;6621326;26;33352;-88
2022/04/21 03:53:08;;;;;;;;;;;;;;;2.55;97.04;100120.75;6652937;26;34062;-88
2022/04/21 03:56:16;;;;;;;24.67;13.20;;;;;;;2.54;95.93;100124.38;6638849;26;34279;-88
2022/04/21 03:59:29;;;;;;;22.02;12.63;;;;;;;2.65;95.59;100121.63;6636996;26;33643;-88
2022/04/21 04:02:42;;;;;;;23.83;14.43;;;;;;;2.63;96.62;100127.09;6636410;26;35288;-91
2022/04/21 04:05:54;;;;;;;23.73;13.62;;;;;;;2.58;97.13;100133.78;6636627;26;34719;-88
2022/04/21 04:12:36;;;;;;;25.73;13.30;;;;;;;2.57;95.55;100135.56;6615443;26;32945;-88
2022/04/21 04:15:51;;;;;;;24.17;13.98;;;;;;;2.59;95.30;100135.47;6637041;26;34437;-88
2022/04/21 04:19:10;;;;;;;28.58;13.75;;;;;;;2.62;96.26;100144.00;6615196;26;32954;-88
2022/04/21 04:22:20;;;;;;;26.58;12.50;;;;;;;2.74;95.24;100136.78;6614656;26;33102;-88
2022/04/21 04:25:30;;;;;;;23.17;13.68;;;;;;;2.72;97.15;100136.06;6634572;26;34970;-87
2022/04/21 04:28:43;;;;;;;20.48;12.65;;;;;;;2.84;96.71;100135.00;6614570;26;33194;-88
2022/04/21 04:31:57;;;;;;;18.80;12.40;;;;;;;2.95;96.29;100140.25;6634995;26;33992;-87
2022/04/21 04:35:09;;;;;;;19.05;11.65;;;;;;;3.15;96.24;100143.78;6635046;26;33996;-88
2022/04/21 04:38:21;;;;;;;18.20;10.65;;;;;;;3.37;92.61;100141.87;6635609;26;34576;-88
2022/04/21 04:48:43;;;;;;;24.35;14.02;;;;;;;3.83;87.87;100140.34;6634488;26;33662;-88
2022/04/21 04:51:55;;;;;;;27.13;14.90;;;;;;;3.92;87.79;100138.69;6618561;26;32592;-88
2022/04/21 04:55:10;;;;;;;27.65;14.82;;;;;;;4.02;86.74;100144.84;6638331;26;34974;-87
2022/04/21 04:58:21;;;;;;;25.62;14.35;;;;;;;4.03;85.69;100141.19;6613956;26;32525;-88
2022/04/21 05:01:31;;;;;;;;;;;;;;;4.11;85.62;100149.31;6616038;26;33766;-87
2022/04/21 05:04:44;;;;;;;21.20;12.82;;;;;;;4.26;85.71;100155.87;6638081;26;33922;-87
2022/04/21 05:07:50;;;;;;;21.67;13.25;;;;;;;4.39;84.72;100163.59;6634533;26;34369;-88
2022/04/21 05:11:03;;;;;;;22.02;14.13;;;;;;;4.61;83.48;100159.75;6614832;26;32614;-88
2022/04/21 05:14:14;;;;;;;24.12;14.15;;;;;;;4.81;83.10;100165.87;6634121;26;34275;-88
2022/04/21 05:17:27;;;;;;;23.58;14.13;;;;;;;5.00;82.08;100160.47;6613135;26;33030;-92
2022/04/21 05:20:54;;;;;;;22.37;14.55;;;;;;;5.18;80.80;100155.19;6634268;26;33935;-88
2022/04/21 05:24:01;;;;;;;23.58;15.18;;;;;;;5.39;80.86;100146.91;6617144;26;33197;-88
2022/04/21 05:27:06;;;;;;;26.67;16.35;;;;;;;5.73;79.00;100148.91;6633271;26;33958;-88
2022/04/21 05:33:35;;;;;;;27.65;16.55;;;;;;;6.13;76.51;100148.47;6633664;26;33825;-88
2022/04/21 05:36:42;;;;;;;29.92;18.95;;;;;;;6.58;73.95;100149.28;6614794;26;32755;-88
2022/04/21 05:39:48;;;;;;;28.40;18.75;;;;;;;6.73;73.20;100153.06;6640643;26;34060;-88
2022/04/21 05:42:55;;;;;;;27.33;18.65;;;;;;;6.75;72.19;100155.56;6633508;26;34490;-88
2022/04/21 05:46:00;;;;;;;29.77;19.15;;;;;;;6.96;72.04;100156.03;6612924;26;32643;-87
2022/04/21 05:49:06;;;;;;;31.37;20.25;;;;;;;6.97;71.98;100140.81;6614041;26;32721;-87
2022/04/21 05:52:13;;;;;;;30.10;19.20;;;;;;;7.13;70.65;100146.22;6592174;26;620219;-87
2022/04/21 05:55:19;;;;;;;33.90;21.17;;;;;;;7.32;70.61;100142.44;6613590;26;32898;-88
2022/04/21 05:58:26;;;;;;;32.83;21.17;;;;;;;7.53;68.55;100147.34;6633792;26;34446;-87
2022/04/21 06:01:31;;;;;;;35.70;21.45;;;;;;;7.76;68.05;100152.09;6634105;26;34197;-88
2022/04/21 06:04:35;;;;;;;33.67;20.12;;;;;;;7.91;67.17;100150.44;6614506;26;32958;-87
2022/04/21 06:07:40;;;;;;;30.98;19.70;;;;;;;8.08;66.05;100144.09;6634083;26;34615;-87
2022/04/21 06:10:44;;;;;;;28.87;18.23;;;;;;;8.05;68.03;100144.41;6613776;26;32090;-87
2022/04/21 06:13:50;;;;;;;32.33;20.40;;;;;;;8.34;66.07;100146.59;6633790;26;35114;-88
2022/04/21 06:16:58;;;;;;;29.33;18.92;;;;;;;8.52;65.23;100151.78;6633883;26;34055;-88
2022/04/21 06:20:04;;;;;;;29.05;18.50;;;;;;;8.62;64.38;100141.69;6614864;26;33689;-90
2022/04/21 06:23:10;;;;;;;27.58;17.92;;;;;;;8.63;63.71;100142.56;6616193;26;33482;-91
2022/04/21 06:26:18;;;;;;;28.05;17.15;;;;;;;8.89;62.52;100141.47;6634712;26;33548;-88
2022/04/21 06:29:23;;;;;;;29.85;18.12;;;;;;;8.99;61.83;100129.53;6619886;26;32620;-87
2022/04/21 06:32:28;;;;;;;28.70;17.83;;;;;;;9.16;61.89;100133.00;6626884;26;32526;-88
2022/04/21 06:35:33;;;;;;;30.02;18.55;;;;;;;9.27;61.77;100134.44;6630357;26;34455;-88
2022/04/21 06:38:36;;;;;;;31.67;19.23;;;;;;;9.46;60.61;100136.69;6615611;26;32238;-87
2022/04/21 06:41:43;;;;;;;28.92;18.10;;;;;;;9.64;60.14;100124.81;6617999;26;33522;-87
2022/04/21 06:48:13;;;;;;;23.77;15.00;;;;;;;10.02;59.88;100127.59;6620093;26;32584;-88
2022/04/21 06:51:18;;;;;;;26.73;15.43;;;;;;;10.32;58.52;100125.84;6634285;26;33922;-88
2022/04/21 06:54:22;;;;;;;25.50;16.87;;;;;;;10.62;56.20;100127.56;6611252;26;32467;-88
2022/04/21 06:57:25;;;;;;;27.65;15.30;;;;;;;10.86;54.78;100123.75;6610075;26;33667;-88
2022/04/21 07:00:30;;;;;;;23.55;14.82;;;;;;;11.05;55.21;100116.97;6611303;26;32763;-87
2022/04/21 07:03:36;;;;;;;20.95;11.98;;;;;;;11.24;54.13;100120.94;6632638;26;34859;-87
2022/04/21 07:06:43;;;;;;;19.98;12.02;;;;;;;11.37;53.22;100112.16;6633583;26;34399;-88
2022/04/21 07:09:47;;;;;;;18.73;11.15;;;;;;;11.50;52.11;100109.62;6614901;26;32474;-88
2022/04/21 07:12:55;;;;;;;18.98;11.85;;;;;;;11.79;51.85;100114.09;6614070;26;33076;-88
2022/04/21 07:15:58;;;;;;;14.43;8.25;;;;;;;12.02;51.37;100118.47;6613691;26;32549;-88
2022/04/21 07:19:07;;;;;;;13.43;7.50;;;;;;;12.35;50.06;100118.78;6636304;26;34069;-87
2022/04/21 07:22:12;;;;;;;13.00;6.03;;;;;;;12.57;47.79;100116.00;6614796;26;34322;-87
2022/04/21 07:25:17;;;;;;;12.52;6.05;;;;;;;12.37;46.68;100119.41;6614844;26;33389;-88
2022/04/21 07:28:22;;;;;;;16.55;7.87;;;;;;;12.43;49.53;100121.34;6620673;26;32312;-88
2022/04/21 07:31:28;;;;;;;13.80;8.07;;;;;;;12.73;47.05;100114.87;6614873;26;33038;-88
2022/04/21 07:34:37;;;;;;;;;;;;;;;13.02;46.41;100108.41;6615240;26;34182;-88
2022/04/21 07:37:48;;;;;;;10.40;6.15;;;;;;;13.14;44.47;100106.78;6635564;26;34898;-87
2022/04/21 07:41:00;;;;;;;11.12;7.20;;;;;;;13.03;45.64;100104.66;6637500;26;35452;-91
2022/04/21 07:44:09;;;;;;;9.65;6.35;;;;;;;13.06;45.17;100094.28;6636665;26;34579;-88
2022/04/21 07:47:13;;;;;;;12.98;6.82;;;;;;;13.20;44.65;100102.44;6616150;26;32761;-87
2022/04/21 07:50:31;;;;;;;7.53;4.75;;;;;;;13.29;46.51;100096.69;6635368;26;35027;-87
2022/04/21 07:53:56;;;;;;;8.57;4.57;;;;;;;13.28;43.74;100107.69;6637383;26;33890;-87
2022/04/21 07:57:02;;;;;;;5.12;3.75;;;;;;;13.37;43.25;100096.50;6615532;26;33386;-87
2022/04/21 08:00:10;;;;;;;8.10;4.47;;;;;;;13.67;44.06;100092.63;6637030;26;33878;-88
2022/04/21 08:03:19;;;;;;;6.40;4.25;;;;;;;13.75;41.18;100087.03;6630564;26;33924;-87
2022/04/21 08:06:25;;;;;;;5.10;3.85;;;;;;;13.83;40.51;100087.69;6620323;26;32383;-87
2022/04/21 08:09:33;;;;;;;7.53;4.43;;;;;;;13.91;39.26;100081.22;6642101;26;34303;-87
2022/04/21 08:12:39;;;;;;;4.22;3.30;;;;;;;14.02;40.08;100079.78;6625560;26;32426;-87
2022/04/21 08:15:46;;;;;;;5.37;2.87;;;;;;;14.30;38.03;100079.53;6624978;26;33605;-88
2022/04/21 08:18:52;;;;;;;4.25;2.67;;;;;;;14.29;37.04;100080.59;6637658;26;34175;-87
2022/04/21 08:22:00;;;;;;;4.85;3.47;;;;;;;14.38;38.52;100071.22;6616718;26;32475;-88
2022/04/21 08:32:33;;;;;;;7.28;3.80;;;;;;;14.59;37.86;100081.00;6614417;26;34210;-88
2022/04/21 08:35:42;;;;;;;6.87;4.20;;;;;;;14.83;39.30;100070.50;6614785;26;32936;-87
2022/04/21 08:38:51;;;;;;;4.68;3.67;;;;;;;14.78;39.05;100071.16;6613845;26;32602;-87
2022/04/21 08:42:10;;;;;;;5.25;3.80;;;;;;;14.84;38.26;100069.50;6614472;26;33196;-87
2022/04/21 08:45:14;;;;;;;4.80;3.40;;;;;;;14.87;38.32;100069.06;6615120;26;32438;-87
2022/04/21 08:48:20;;;;;;;5.85;4.15;;;;;;;14.77;36.43;100069.50;6614274;26;32968;-87
2022/04/21 08:51:28;;;;;;;5.15;3.85;;;;;;;14.79;37.11;100074.72;6613924;26;32604;-87
2022/04/21 08:54:38;;;;;;;3.47;2.95;;;;;;;14.68;37.45;100070.75;6614789;26;32929;-87
2022/04/21 08:57:50;;;;;;;5.20;3.15;;;;;;;14.89;37.56;100066.97;6615079;26;33863;-87
2022/04/21 09:01:00;;;;;;;5.47;3.15;;;;;;;14.79;36.92;100072.00;6615435;26;33713;-87
2022/04/21 09:04:10;;;;;;;5.12;3.20;;;;;;;14.89;35.49;100078.66;6634784;26;34502;-87
2022/04/21 09:07:20;;;;;;;3.25;2.62;;;;;;;15.12;36.96;100071.88;6634955;26;34301;-87
2022/04/21 09:10:32;;;;;;;3.22;2.40;;;;;;;15.39;36.15;100070.72;6635352;26;34279;-91
2022/04/21 09:13:39;;;;;;;3.87;2.92;;;;;;;15.63;33.41;100074.53;6614836;26;32524;-91
2022/04/21 09:16:45;;;;;;;3.22;2.15;;;;;;;15.55;34.09;100082.94;6614289;26;33919;-86
2022/04/21 09:20:10;;;;;;;3.05;2.78;;;;;;;15.56;35.04;100076.47;6641276;26;33847;-87
2022/04/21 09:23:33;;;;;;;3.03;2.53;;;;;;;15.48;34.14;100073.19;6614597;26;34201;-87
2022/04/21 09:26:45;;;;;;;2.78;2.40;;;;;;;15.33;34.67;100081.59;6615387;26;36069;-86
2022/04/21 09:29:49;;;;;;;2.45;2.25;;;;;;;15.13;33.89;100082.50;6617715;26;31901;-86
2022/04/21 09:32:58;;;;;;;3.72;2.72;;;;;;;15.12;34.61;100075.44;6651918;26;35082;-87
2022/04/21 09:36:07;;;;;;;2.55;2.35;;;;;;;15.46;36.34;100077.97;6652423;26;35164;-87
2022/04/21 09:39:15;;;;;;;2.75;2.28;;;;;;;15.78;35.22;100074.25;6635452;26;34405;-87
2022/04/21 09:42:27;;;;;;;2.67;2.42;;;;;;;15.80;33.76;100074.06;6615270;26;32115;-87
2022/04/21 09:49:06;;;;;;;2.10;1.90;;;;;;;15.91;34.87;100083.34;6635223;26;34826;-87
2022/04/21 09:52:31;;;;;;;3.22;2.42;;;;;;;16.04;32.60;100070.50;6635411;26;34069;-85
2022/04/21 09:55:37;;;;;;;2.50;2.25;;;;;;;16.16;34.17;100067.09;6612942;26;33791;-85
2022/04/21 09:58:42;;;;;;;2.67;2.33;;;;;;;16.51;32.32;100070.94;6614595;26;33552;-86
2022/04/21 10:01:50;;;;;;;3.20;2.90;;;;;;;16.29;33.34;100077.81;6635230;26;34286;-86
2022/04/21 10:04:57;;;;;;;2.50;2.08;;;;;;;16.35;32.86;100066.09;6634674;26;34021;-86
2022/04/21 10:08:07;;;;;;;2.83;2.58;;;;;;;16.26;33.49;100068.25;6634506;26;33741;-86
2022/04/21 10:11:23;;;;;;;3.00;2.70;;;;;;;16.41;32.41;100065.19;6634539;26;33826;-86
2022/04/21 10:14:33;;;;;;;3.33;2.70;;;;;;;16.58;33.43;100054.53;6641104;26;34268;-86
2022/04/21 10:17:42;;;;;;;4.03;2.70;;;;;;;16.93;34.62;100043.94;6615121;26;32746;-86
2022/04/21 10:20:52;;;;;;;4.10;2.87;;;;;;;16.95;33.06;100043.72;6637761;26;34877;-87
2022/04/21 10:24:01;;;;;;;3.75;2.78;;;;;;;16.83;34.47;100057.25;6612826;26;33355;-87
2022/04/21 10:27:35;;;;;;;3.70;2.08;;;;;;;17.00;33.18;100058.28;6632766;26;35333;-87
2022/04/21 10:30:46;;;;;;;3.35;2.72;;;;;;;17.14;31.95;100049.94;6598218;26;32187;-87
2022/04/21 10:33:59;;;;;;;2.20;2.00;;;;;;;17.52;31.94;100033.34;6635300;26;34681;-86
2022/04/21 10:37:10;;;;;;;2.67;2.35;;;;;;;17.33;30.92;100046.16;6613564;26;34445;-86
2022/04/21 10:40:22;;;;;;;3.30;2.53;;;;;;;17.37;31.08;100035.62;6614813;26;32493;-87
2022/04/21 10:43:53;;;;;;;3.42;2.50;;;;;;;17.48;31.41;100032.12;6614063;26;32829;-87
2022/04/21 10:47:34;;;;;;;3.40;2.75;;;;;;;17.72;30.24;100027.56;6621627;26;33987;-88
2022/04/21 10:50:40;;;;;;;4.03;2.10;;;;;;;18.38;27.93;100035.72;6634009;26;33742;-88
2022/04/21 10:57:28;;;;;;;1.70;1.60;;;;;;;17.64;32.00;100017.03;6614023;26;32946;-88
2022/04/21 11:00:32;;;;;;;2.45;2.20;;;;;;;18.66;28.65;100019.47;6608663;26;32939;-86
2022/04/21 11:03:40;;;;;;;4.25;2.33;;;;;;;18.93;28.56;100010.78;6608222;26;32821;-86
2022/04/21 11:07:05;;;;;;;2.97;2.67;;;;;;;18.79;27.02;100018.41;6609911;26;32238;-86
2022/04/21 11:10:29;;;;;;;2.35;2.17;;;;;;;19.25;28.01;100003.78;6618749;26;33533;-91
2022/04/21 11:13:53;;;;;;;2.42;2.22;;;;;;;19.68;27.66;100002.38;6628782;26;35129;-86
2022/04/21 11:17:04;;;;;;;2.70;2.20;;;;;;;19.84;25.22;99999.91;6608312;26;32715;-86
2022/04/21 11:20:25;;;;;;;2.30;2.08;;;;;;;20.10;26.96;100006.63;6608297;26;32207;-88
2022/04/21 11:23:31;;;;;;;2.30;2.10;;;;;;;20.24;26.03;100005.19;6608096;26;32908;-87
2022/04/21 11:26:37;;;;;;;3.17;2.28;;;;;;;21.21;25.97;99995.53;6607890;26;32880;-87
2022/04/21 11:29:46;;;;;;;3.03;2.45;;;;;;;21.44;25.00;99985.34;6607187;26;34409;-87
2022/04/21 11:32:52;;;;;;;2.92;2.42;;;;;;;22.05;23.81;99982.31;6608406;26;33863;-87
2022/04/21 11:36:10;;;;;;;2.30;2.10;;;;;;;22.25;23.46;99982.47;6628530;26;35306;-87
2022/04/21 11:39:19;;;;;;;3.25;2.40;;;;;;;23.81;21.80;99983.53;6628526;26;34036;-87
2022/04/21 11:42:27;;;;;;;2.55;2.35;;;;;;;24.46;20.70;99976.34;6609943;26;32997;-88
2022/04/21 11:45:36;;;;;;;2.55;2.35;;;;;;;25.35;19.84;99970.97;6629538;26;34132;-88
2022/04/21 11:48:45;;;;;;;2.47;2.28;;;;;;;25.10;19.41;99975.50;6632228;26;34357;-88
2022/04/21 11:51:53;;;;;;;2.67;2.47;;;;;;;25.74;19.15;99970.97;6616016;26;32706;-89
2022/04/21 11:55:01;;;;;;;3.03;2.15;;;;;;;26.01;18.36;99964.97;6630419;26;33926;-92
2022/04/21 11:58:07;;;;;;;2.70;2.50;;;;;;;25.37;19.55;99977.03;6652808;26;35462;-88
2022/04/21 12:08:13;;;;;;;4.07;3.22;;;;;;;26.46;19.92;99959.25;6616615;26;36421;-88
2022/04/21 12:11:22;;;;;;;3.05;2.80;;;;;;;27.43;18.83;99944.16;6613165;26;33837;-88
2022/04/21 12:14:29;;;;;;;2.83;2.62;;;;;;;28.48;18.71;99950.06;6631991;26;33567;-88
2022/04/21 12:17:34;;;;;;;2.80;2.60;;;;;;;28.78;16.50;99960.81;6644563;26;34555;-88
2022/04/21 12:20:53;;;;;;;3.35;3.00;;;;;;;28.17;17.53;99955.37;6630526;26;32503;-88
2022/04/21 12:23:56;;;;;;;3.75;2.60;;;;;;;28.63;18.12;99960.00;6629380;26;33710;-88
2022/04/21 12:27:02;;;;;;;3.30;2.85;;;;;;;29.21;17.06;99952.16;6630330;26;33691;-88
2022/04/21 12:30:08;;;;;;;3.35;3.03;;;;;;;28.83;17.41;99949.63;6629040;26;33792;-88
2022/04/21 12:33:12;;;;;;;3.40;2.78;;;;;;;28.88;16.79;99938.44;6629705;26;35514;-88
2022/04/21 12:36:26;;;;;;;3.75;2.90;;;;;;;28.78;16.99;99941.44;6610013;26;33498;-88
2022/04/21 12:39:30;;;;;;;3.12;2.87;;;;;;;29.31;16.05;99941.66;6609419;26;33426;-88
2022/04/21 12:42:57;;;;;;;3.35;3.05;;;;;;;28.85;17.45;99934.34;6609223;26;33842;-88
2022/04/21 12:46:06;;;;;;;3.50;3.10;;;;;;;29.02;17.17;99939.28;6630495;26;33830;-88
2022/04/21 12:49:13;;;;;;;3.90;3.50;;;;;;;29.69;15.86;99929.38;6609484;26;32905;-87
2022/04/21 12:52:28;;;;;;;3.45;2.92;;;;;;;29.94;15.46;99925.94;6631867;26;34003;-87
2022/04/21 12:55:35;;;;;;;4.12;3.20;;;;;;;29.82;15.47;99928.47;6635479;26;34898;-87
2022/04/21 12:58:38;;;;;;;3.42;3.12;;;;;;;29.72;16.07;99928.72;6625120;26;33423;-86
2022/04/21 13:01:43;;;;;;;3.58;3.15;;;;;;;28.97;16.27;99942.13;6615739;26;32659;-88
2022/04/21 13:04:48;;;;;;;3.40;3.05;;;;;;;31.32;15.05;99926.66;6639884;26;34571;-88
2022/04/21 13:07:51;;;;;;;3.50;3.20;;;;;;;30.48;14.90;99921.12;6641758;26;34757;-85
2022/04/21 13:10:56;;;;;;;3.37;3.08;;;;;;;28.45;16.34;99927.72;6642069;26;34218;-88
2022/04/21 13:14:02;;;;;;;4.18;3.30;;;;;;;29.09;16.58;99931.34;6620214;26;33084;-87
2022/04/21 13:17:06;;;;;;;3.60;3.30;;;;;;;29.09;16.10;99933.28;6628135;26;31881;-88
2022/04/21 13:20:10;;;;;;;3.50;3.03;;;;;;;29.57;16.01;99921.59;6626631;26;35117;-86
2022/04/21 13:23:16;;;;;;;3.30;3.00;;;;;;;29.30;16.00;99933.63;6655682;26;35343;-87
2022/04/21 13:26:28;;;;;;;3.10;2.90;;;;;;;29.31;15.44;99927.78;6626919;26;33303;-87
2022/04/21 13:29:37;;;;;;;3.33;3.00;;;;;;;29.93;15.72;99912.41;6615910;26;35210;-88
2022/04/21 13:36:06;;;;;;;3.35;3.05;;;;;;;25.35;18.72;99929.62;6636323;26;34298;-87
2022/04/21 13:39:12;;;;;;;3.67;3.35;;;;;;;24.11;21.19;99927.72;6614356;26;32711;-88
2022/04/21 13:42:18;;;;;;;3.30;3.00;;;;;;;26.14;19.28;99922.06;6614986;26;32380;-88
2022/04/21 13:45:26;;;;;;;4.18;3.28;;;;;;;25.92;19.98;99919.00;6636239;26;35154;-87
2022/04/21 13:48:43;;;;;;;3.58;2.85;;;;;;;27.42;18.06;99919.59;6635290;26;34029;-87
2022/04/21 13:51:53;;;;;;;4.18;3.28;;;;;;;25.29;19.33;99919.75;6629284;26;32312;-88
2022/04/21 13:54:58;;;;;;;3.20;2.70;;;;;;;26.46;18.74;99931.63;6639354;26;34191;-88
2022/04/21 13:58:04;;;;;;;3.45;3.15;;;;;;;29.24;17.07;99927.38;6635846;26;34047;-89
2022/04/21 14:01:16;;;;;;;3.50;3.20;;;;;;;28.99;16.63;99922.41;6613701;26;33217;-89
2022/04/21 14:04:26;;;;;;;3.28;2.97;;;;;;;28.22;16.88;99915.69;6637302;26;34222;-88
2022/04/21 14:07:38;;;;;;;2.83;2.58;;;;;;;28.74;16.02;99910.75;6616078;26;32954;-88
2022/04/21 14:10:46;;;;;;;3.50;3.20;;;;;;;29.14;16.10;99913.78;6636720;26;34518;-88
2022/04/21 14:13:56;;;;;;;3.40;2.70;;;;;;;29.25;16.58;99920.72;6635217;26;34300;-88
2022/04/21 14:17:06;;;;;;;3.45;2.37;;;;;;;28.53;16.00;99910.37;6614147;26;32284;-87
2022/04/21 14:20:14;;;;;;;4.10;2.90;;;;;;;27.45;17.40;99903.22;6635450;26;33643;-87
2022/04/21 14:23:23;;;;;;;3.00;2.60;;;;;;;26.48;17.75;99906.50;6614040;26;32994;-87
2022/04/21 14:26:36;;;;;;;3.60;3.30;;;;;;;25.37;18.71;99905.38;6613875;26;34267;-87
2022/04/21 14:29:48;;;;;;;3.55;3.22;;;;;;;24.81;19.78;99914.81;6636191;26;33947;-86
2022/04/21 14:32:56;;;;;;;3.10;2.75;;;;;;;23.61;20.69;99919.22;6619762;26;33438;-87
2022/04/21 14:36:09;;;;;;;3.42;3.12;;;;;;;23.70;21.56;99914.84;6637568;26;34010;-87
2022/04/21 14:46:16;;;;;;;3.45;3.15;;;;;;;23.96;20.76;99910.13;6628628;26;32919;-88
2022/04/21 14:49:45;;;;;;;5.22;3.65;;;;;;;24.30;21.05;99914.97;6619282;26;34494;-87
2022/04/21 14:52:50;;;;;;;4.00;3.20;;;;;;;23.18;21.52;99921.38;6637991;26;35458;-87
2022/04/21 14:56:00;;;;;;;4.00;3.60;;;;;;;22.88;22.13;99922.13;6620529;26;32927;-88
2022/04/21 14:59:09;;;;;;;3.80;3.47;;;;;;;22.82;21.93;99918.53;6655552;26;35385;-87
2022/04/21 15:02:14;;;;;;;5.03;3.50;;;;;;;22.16;22.74;99920.97;6648350;26;35508;-87
2022/04/21 15:05:22;;;;;;;3.77;3.20;;;;;;;20.07;25.09;99923.22;6634934;26;33747;-87
2022/04/21 15:08:28;;;;;;;3.83;3.20;;;;;;;19.03;27.59;99924.47;6625981;26;33857;-86
2022/04/21 15:11:41;;;;;;;4.47;3.72;;;;;;;18.70;27.85;99914.28;6636846;26;33895;-87
2022/04/21 15:14:51;;;;;;;4.57;3.05;;;;;;;18.30;28.49;99926.00;6616817;26;34130;-86
2022/04/21 15:18:01;;;;;;;3.08;2.80;;;;;;;17.52;29.32;99915.44;6616315;26;33122;-86
2022/04/21 15:21:10;;;;;;;6.40;3.70;;;;;;;16.99;29.75;99912.50;6638517;26;35096;-91
2022/04/21 15:24:19;;;;;;;3.37;3.08;;;;;;;16.90;30.49;99908.44;6637108;26;35353;-88
2022/04/21 15:27:29;;;;;;;4.65;3.37;;;;;;;16.99;29.98;99906.22;6639128;26;34212;-88
2022/04/21 15:30:40;;;;;;;4.55;3.67;;;;;;;16.82;31.06;99900.63;6638860;26;33598;-88
2022/04/21 15:33:55;;;;;;;6.47;3.33;;;;;;;16.85;29.84;99897.44;6638570;26;33999;-90
2022/04/21 15:37:08;;;;;;;3.85;3.55;;;;;;;16.57;32.95;99894.44;6619013;26;33549;-89
2022/04/21 15:40:20;;;;;;;3.75;3.37;;;;;;;16.41;32.22;99891.28;6622220;26;32361;-86
2022/04/21 15:43:31;;;;;;;3.70;3.40;;;;;;;16.26;32.26;99897.13;6615924;26;32226;-86
2022/04/21 15:46:44;;;;;;;4.65;3.70;;;;;;;16.32;31.12;99898.06;6636852;26;34820;-86
2022/04/21 15:49:56;;;;;;;5.28;3.65;;;;;;;16.25;31.48;99891.91;6616515;26;32975;-86
2022/04/21 16:00:15;;;;;;;4.68;3.78;;;;;;;16.01;31.67;99890.91;6638127;26;34064;-90
